createdAt,value
2022-11-01T00:02:00.558Z,14.50
2022-11-01T00:04:27.615Z,14.50
2022-11-01T00:06:54.704Z,14.40
2022-11-01T00:09:21.906Z,14.40
2022-11-01T00:11:48.892Z,14.40
2022-11-01T00:14:17.610Z,14.50
2022-11-01T00:16:44.739Z,14.40
2022-11-01T00:19:12.044Z,14.40
2022-11-01T00:21:39.054Z,14.40
2022-11-01T00:24:06.487Z,14.40
2022-11-01T00:26:33.568Z,14.40
2022-11-01T00:29:00.536Z,14.30
2022-11-01T00:31:27.560Z,14.30
2022-11-01T00:33:54.535Z,14.30
2022-11-01T00:36:21.544Z,14.30
2022-11-01T00:38:52.278Z,14.30
2022-11-01T00:41:21.034Z,14.20
2022-11-01T00:43:48.827Z,14.30
2022-11-01T00:46:16.382Z,14.20
2022-11-01T00:48:43.680Z,14.20
2022-11-01T00:51:11.047Z,14.20
2022-11-01T00:53:38.110Z,14.30
2022-11-01T00:56:06.520Z,14.20
2022-11-01T00:58:33.875Z,14.20
2022-11-01T01:01:01.004Z,14.20
2022-11-01T01:03:28.127Z,14.20
2022-11-01T01:05:55.597Z,14.20
2022-11-01T01:08:23.417Z,14.30
2022-11-01T01:10:50.408Z,14.30
2022-11-01T01:13:17.600Z,14.30
2022-11-01T01:15:45.214Z,14.30
2022-11-01T01:18:12.819Z,14.30
2022-11-01T01:20:40.207Z,14.30
2022-11-01T01:23:07.237Z,14.30
2022-11-01T01:25:34.298Z,14.30
2022-11-01T01:28:01.692Z,14.30
2022-11-01T01:30:28.869Z,14.30
2022-11-01T01:32:55.870Z,14.30
2022-11-01T01:35:22.840Z,14.20
2022-11-01T01:37:49.829Z,14.20
2022-11-01T01:40:16.926Z,14.20
2022-11-01T01:42:44.152Z,14.30
2022-11-01T01:45:31.408Z,14.20
2022-11-01T01:48:11.344Z,14.20
2022-11-01T01:50:57.304Z,14.20
2022-11-01T01:53:31.805Z,14.20
2022-11-01T01:56:03.405Z,14.20
2022-11-01T01:58:34.647Z,14.20
2022-11-01T02:01:01.805Z,14.20
2022-11-01T02:03:32.191Z,14.10
2022-11-01T02:06:17.518Z,14.10
2022-11-01T02:08:54.031Z,14.10
2022-11-01T02:11:21.324Z,14.10
2022-11-01T02:13:48.856Z,14.10
2022-11-01T02:16:49.313Z,14.00
2022-11-01T02:19:53.950Z,13.90
2022-11-01T02:22:27.646Z,13.90
2022-11-01T02:25:04.375Z,13.80
2022-11-01T02:27:52.470Z,13.80
2022-11-01T02:30:21.141Z,13.70
2022-11-01T02:32:54.767Z,13.70
2022-11-01T02:35:49.092Z,13.70
2022-11-01T02:38:38.938Z,13.70
2022-11-01T02:41:13.418Z,13.70
2022-11-01T02:43:49.049Z,13.60
2022-11-01T02:46:38.018Z,13.60
2022-11-01T02:49:05.830Z,13.50
2022-11-01T02:51:35.150Z,13.50
2022-11-01T02:54:08.005Z,13.50
2022-11-01T02:56:35.730Z,13.40
2022-11-01T02:59:03.358Z,13.40
2022-11-01T03:01:34.524Z,13.40
2022-11-01T03:04:02.370Z,13.30
2022-11-01T03:06:46.780Z,13.30
2022-11-01T03:09:14.784Z,13.30
2022-11-01T03:12:13.663Z,13.30
2022-11-01T03:14:53.911Z,13.30
2022-11-01T03:17:39.487Z,13.20
2022-11-01T03:20:11.402Z,13.20
2022-11-01T03:22:41.617Z,13.20
2022-11-01T03:25:31.383Z,13.20
2022-11-01T03:28:06.720Z,13.20
2022-11-01T03:30:35.451Z,13.10
2022-11-01T03:33:02.717Z,13.10
2022-11-01T03:35:35.955Z,13.10
2022-11-01T03:38:07.576Z,13.10
2022-11-01T03:40:36.263Z,13.10
2022-11-01T03:43:06.901Z,13.00
2022-11-01T03:45:38.175Z,13.00
2022-11-01T03:48:05.950Z,13.00
2022-11-01T03:50:33.980Z,13.00
2022-11-01T03:53:00.935Z,12.90
2022-11-01T03:55:27.903Z,12.90
2022-11-01T03:57:57.525Z,12.90
2022-11-01T04:00:28.930Z,12.80
2022-11-01T04:02:57.235Z,12.80
2022-11-01T04:05:25.843Z,12.70
2022-11-01T04:07:52.944Z,12.70
2022-11-01T04:10:22.022Z,12.70
2022-11-01T04:12:50.817Z,12.70
2022-11-01T04:15:37.327Z,12.70
2022-11-01T04:18:25.708Z,12.70
2022-11-01T04:20:53.830Z,12.70
2022-11-01T04:23:21.348Z,12.70
2022-11-01T04:25:48.319Z,12.70
2022-11-01T04:28:15.950Z,12.70
2022-11-01T04:30:43.954Z,12.70
2022-11-01T04:33:11.123Z,12.70
2022-11-01T04:35:38.242Z,12.70
2022-11-01T04:38:06.265Z,12.70
2022-11-01T04:40:34.439Z,12.60
2022-11-01T04:43:02.028Z,12.60
2022-11-01T04:45:29.040Z,12.60
2022-11-01T04:48:05.496Z,12.60
2022-11-01T04:50:33.923Z,12.60
2022-11-01T04:53:01.782Z,12.50
2022-11-01T04:55:29.502Z,12.50
2022-11-01T04:57:57.269Z,12.50
2022-11-01T05:00:25.035Z,12.40
2022-11-01T05:02:52.146Z,12.30
2022-11-01T05:05:19.647Z,12.30
2022-11-01T05:07:46.684Z,12.30
2022-11-01T05:10:13.804Z,12.30
2022-11-01T05:12:40.791Z,12.20
2022-11-01T05:15:08.422Z,12.20
2022-11-01T05:17:35.395Z,12.20
2022-11-01T05:20:02.365Z,12.20
2022-11-01T05:22:29.398Z,12.20
2022-11-01T05:24:56.424Z,12.20
2022-11-01T05:27:23.445Z,12.20
2022-11-01T05:29:50.460Z,12.20
2022-11-01T05:32:17.940Z,12.20
2022-11-01T05:34:46.790Z,12.20
2022-11-01T05:37:13.892Z,12.10
2022-11-01T05:39:40.937Z,12.10
2022-11-01T05:42:08.135Z,12.20
2022-11-01T05:44:35.330Z,12.20
2022-11-01T05:47:05.932Z,12.10
2022-11-01T05:49:32.951Z,12.10
2022-11-01T05:51:59.923Z,12.10
2022-11-01T05:54:26.921Z,12.20
2022-11-01T05:56:53.880Z,12.10
2022-11-01T05:59:20.866Z,12.10
2022-11-01T06:01:47.972Z,12.10
2022-11-01T06:04:14.967Z,12.10
2022-11-01T06:06:41.955Z,12.10
2022-11-01T06:09:09.711Z,12.10
2022-11-01T06:11:41.367Z,12.10
2022-11-01T06:14:10.951Z,12.10
2022-11-01T06:16:37.953Z,12.10
2022-11-01T06:19:04.912Z,12.10
2022-11-01T06:21:31.858Z,12.10
2022-11-01T06:23:58.840Z,12.10
2022-11-01T06:26:25.843Z,12.10
2022-11-01T06:28:52.809Z,12.20
2022-11-01T06:31:20.028Z,12.20
2022-11-01T06:33:50.338Z,12.30
2022-11-01T06:36:17.344Z,12.30
2022-11-01T06:38:44.306Z,12.40
2022-11-01T06:41:11.289Z,12.50
2022-11-01T06:43:38.245Z,12.60
2022-11-01T06:46:05.278Z,12.70
2022-11-01T06:48:32.296Z,12.90
2022-11-01T06:51:02.053Z,13.10
2022-11-01T06:53:29.528Z,13.30
2022-11-01T06:56:02.961Z,13.50
2022-11-01T06:58:30.022Z,13.80
2022-11-01T07:00:57.144Z,14.20
2022-11-01T07:03:24.199Z,14.60
2022-11-01T07:05:52.043Z,15.00
2022-11-01T07:08:19.097Z,15.40
2022-11-01T07:10:46.200Z,15.80
2022-11-01T07:13:14.237Z,16.20
2022-11-01T07:15:41.458Z,16.40
2022-11-01T07:18:09.145Z,16.60
2022-11-01T07:20:42.058Z,16.80
2022-11-01T07:23:16.960Z,16.90
2022-11-01T07:25:44.474Z,17.00
2022-11-01T07:28:11.998Z,17.10
2022-11-01T07:30:39.511Z,17.10
2022-11-01T07:33:07.145Z,17.10
2022-11-01T07:35:34.953Z,17.10
2022-11-01T07:38:04.997Z,17.20
2022-11-01T07:40:35.767Z,17.10
2022-11-01T07:43:04.201Z,17.10
2022-11-01T07:45:33.870Z,17.20
2022-11-01T07:48:10.577Z,17.20
2022-11-01T07:50:39.550Z,17.30
2022-11-01T07:53:18.493Z,17.40
2022-11-01T07:55:46.332Z,17.60
2022-11-01T07:58:14.457Z,17.70
2022-11-01T08:00:42.823Z,17.80
2022-11-01T08:03:17.724Z,17.90
2022-11-01T08:05:46.098Z,18.10
2022-11-01T08:08:14.598Z,18.10
2022-11-01T08:10:42.506Z,18.20
2022-11-01T08:13:16.726Z,18.30
2022-11-01T08:15:44.720Z,18.40
2022-11-01T08:18:12.041Z,18.40
2022-11-01T08:20:39.360Z,18.50
2022-11-01T08:23:06.875Z,18.60
2022-11-01T08:25:35.026Z,18.70
2022-11-01T08:28:07.974Z,18.80
2022-11-01T08:30:36.420Z,18.80
2022-11-01T08:33:05.387Z,18.90
2022-11-01T08:35:33.986Z,18.90
2022-11-01T08:38:03.352Z,18.90
2022-11-01T08:40:31.563Z,18.90
2022-11-01T08:42:59.175Z,19.00
2022-11-01T08:45:26.635Z,19.10
2022-11-01T08:48:05.182Z,19.10
2022-11-01T08:50:33.947Z,19.20
2022-11-01T08:53:10.065Z,19.20
2022-11-01T08:55:38.110Z,19.30
2022-11-01T08:58:06.810Z,19.50
2022-11-01T09:00:34.475Z,19.70
2022-11-01T09:03:01.513Z,19.80
2022-11-01T09:05:31.632Z,20.00
2022-11-01T09:08:02.608Z,20.10
2022-11-01T09:10:33.022Z,20.10
2022-11-01T09:13:01.369Z,20.20
2022-11-01T09:15:28.912Z,20.20
2022-11-01T09:17:56.055Z,20.20
2022-11-01T09:20:24.218Z,20.20
2022-11-01T09:22:52.455Z,20.10
2022-11-01T09:25:19.755Z,20.00
2022-11-01T09:27:46.741Z,20.00
2022-11-01T09:30:13.717Z,20.00
2022-11-01T09:32:40.734Z,20.00
2022-11-01T09:35:09.032Z,20.10
2022-11-01T09:37:36.055Z,20.10
2022-11-01T09:40:03.564Z,20.20
2022-11-01T09:42:39.920Z,20.20
2022-11-01T09:45:16.886Z,20.30
2022-11-01T09:47:46.242Z,20.30
2022-11-01T09:50:25.875Z,20.40
2022-11-01T09:52:55.427Z,20.50
2022-11-01T09:55:49.518Z,20.60
2022-11-01T09:58:28.364Z,20.80
2022-11-01T10:01:23.410Z,21.00
2022-11-01T10:03:56.584Z,21.20
2022-11-01T10:06:28.118Z,21.30
2022-11-01T10:09:29.455Z,21.40
2022-11-01T10:12:03.939Z,21.50
2022-11-01T10:14:30.922Z,21.50
2022-11-01T10:17:00.603Z,21.50
2022-11-01T10:19:33.223Z,21.50
2022-11-01T10:22:07.697Z,21.50
2022-11-01T10:24:40.320Z,21.60
2022-11-01T10:27:18.584Z,21.70
2022-11-01T10:30:08.715Z,21.70
2022-11-01T10:32:42.987Z,21.80
2022-11-01T10:35:19.209Z,21.80
2022-11-01T10:38:18.868Z,21.70
2022-11-01T10:40:56.565Z,21.70
2022-11-01T10:43:25.604Z,21.70
2022-11-01T10:45:57.743Z,21.70
2022-11-01T10:48:53.253Z,21.70
2022-11-01T10:51:27.666Z,21.70
2022-11-01T10:54:00.060Z,21.70
2022-11-01T10:56:38.154Z,21.70
2022-11-01T10:59:27.825Z,21.70
2022-11-01T11:01:56.046Z,21.70
2022-11-01T11:04:24.823Z,21.70
2022-11-01T11:06:52.012Z,21.70
2022-11-01T11:09:29.395Z,21.60
2022-11-01T11:12:04.034Z,21.60
2022-11-01T11:14:33.341Z,21.70
2022-11-01T11:17:03.008Z,21.70
2022-11-01T11:19:29.949Z,21.80
2022-11-01T11:21:58.857Z,21.80
2022-11-01T11:24:30.746Z,21.80
2022-11-01T11:26:58.312Z,21.80
2022-11-01T11:29:40.980Z,21.80
2022-11-01T11:32:18.761Z,21.70
2022-11-01T11:34:59.683Z,21.70
2022-11-01T11:37:30.124Z,21.80
2022-11-01T11:40:19.586Z,21.70
2022-11-01T11:42:51.435Z,21.70
2022-11-01T11:45:30.145Z,21.70
2022-11-01T11:48:15.370Z,21.70
2022-11-01T11:50:43.245Z,21.70
2022-11-01T11:53:20.308Z,21.80
2022-11-01T11:55:56.895Z,21.80
2022-11-01T11:58:32.957Z,21.90
2022-11-01T12:01:05.681Z,22.00
2022-11-01T12:03:55.383Z,22.10
2022-11-01T12:06:28.394Z,22.20
2022-11-01T12:08:58.117Z,22.30
2022-11-01T12:11:38.011Z,22.40
2022-11-01T12:14:21.872Z,22.50
2022-11-01T12:16:48.980Z,22.70
2022-11-01T12:19:26.495Z,22.80
2022-11-01T12:21:55.297Z,22.90
2022-11-01T12:24:29.505Z,23.00
2022-11-01T12:27:01.778Z,23.00
2022-11-01T12:29:45.614Z,23.00
2022-11-01T12:32:18.854Z,23.00
2022-11-01T12:34:48.700Z,23.00
2022-11-01T12:37:51.501Z,23.00
2022-11-01T12:40:33.038Z,23.00
2022-11-01T12:43:10.414Z,23.00
2022-11-01T12:45:55.229Z,23.00
2022-11-01T12:48:39.911Z,23.00
2022-11-01T12:51:36.608Z,23.00
2022-11-01T12:54:32.530Z,23.00
2022-11-01T12:56:59.976Z,22.90
2022-11-01T12:59:32.595Z,22.90
2022-11-01T13:02:08.909Z,22.80
2022-11-01T13:04:42.410Z,22.80
2022-11-01T13:07:24.205Z,22.70
2022-11-01T13:10:22.125Z,22.80
2022-11-01T13:13:01.407Z,22.80
2022-11-01T13:15:31.831Z,22.80
2022-11-01T13:18:13.275Z,22.80
2022-11-01T13:20:55.196Z,22.80
2022-11-01T13:23:25.383Z,22.80
2022-11-01T13:26:10.420Z,22.80
2022-11-01T13:29:32.928Z,22.70
2022-11-01T13:32:15.874Z,22.60
2022-11-01T13:35:12.622Z,22.60
2022-11-01T13:38:10.277Z,22.50
2022-11-01T13:40:58.125Z,22.40
2022-11-01T13:43:44.074Z,22.30
2022-11-01T13:46:17.173Z,22.30
2022-11-01T13:49:06.838Z,22.20
2022-11-01T13:51:46.018Z,22.20
2022-11-01T13:54:15.750Z,22.20
2022-11-01T13:56:48.381Z,22.10
2022-11-01T13:59:33.445Z,22.10
2022-11-01T14:02:23.653Z,22.10
2022-11-01T14:05:01.803Z,22.10
2022-11-01T14:08:03.762Z,22.10
2022-11-01T14:10:30.939Z,22.00
2022-11-01T14:13:10.885Z,22.00
2022-11-01T14:15:55.890Z,22.00
2022-11-01T14:18:23.385Z,21.90
2022-11-01T14:20:57.346Z,21.80
2022-11-01T14:23:29.995Z,21.80
2022-11-01T14:26:18.749Z,21.80
2022-11-01T14:28:51.167Z,21.80
2022-11-01T14:31:24.400Z,21.70
2022-11-01T14:33:56.135Z,21.70
2022-11-01T14:36:31.364Z,21.60
2022-11-01T14:39:09.359Z,21.60
2022-11-01T14:41:39.478Z,21.50
2022-11-01T14:44:29.899Z,21.50
2022-11-01T14:46:59.311Z,21.40
2022-11-01T14:49:26.417Z,21.40
2022-11-01T14:52:01.070Z,21.40
2022-11-01T14:54:33.678Z,21.30
2022-11-01T14:57:01.139Z,21.30
2022-11-01T14:59:31.729Z,21.30
2022-11-01T15:02:05.352Z,21.20
2022-11-01T15:04:39.978Z,21.20
2022-11-01T15:07:29.520Z,21.20
2022-11-01T15:10:07.851Z,21.20
2022-11-01T15:12:45.082Z,21.10
2022-11-01T15:15:19.160Z,21.10
2022-11-01T15:17:57.632Z,21.00
2022-11-01T15:20:35.141Z,21.00
2022-11-01T15:23:10.302Z,20.90
2022-11-01T15:25:37.612Z,20.90
2022-11-01T15:28:05.452Z,20.80
2022-11-01T15:30:34.376Z,20.80
2022-11-01T15:33:29.204Z,20.70
2022-11-01T15:36:02.963Z,20.70
2022-11-01T15:38:33.879Z,20.70
2022-11-01T15:41:30.585Z,20.60
2022-11-01T15:44:00.587Z,20.50
2022-11-01T15:46:39.054Z,20.50
2022-11-01T15:49:17.718Z,20.40
2022-11-01T15:51:53.190Z,20.40
2022-11-01T15:54:35.951Z,20.30
2022-11-01T15:57:11.368Z,20.30
2022-11-01T16:00:06.646Z,20.20
2022-11-01T16:02:56.081Z,20.10
2022-11-01T16:05:31.663Z,20.00
2022-11-01T16:07:59.162Z,20.00
2022-11-01T16:10:29.697Z,20.00
2022-11-01T16:12:58.105Z,19.90
2022-11-01T16:15:28.123Z,19.90
2022-11-01T16:17:59.120Z,19.80
2022-11-01T16:20:41.321Z,19.80
2022-11-01T16:23:10.735Z,19.80
2022-11-01T16:25:39.380Z,19.70
2022-11-01T16:28:09.303Z,19.70
2022-11-01T16:30:43.072Z,19.60
2022-11-01T16:33:30.664Z,19.50
2022-11-01T16:35:59.050Z,19.50
2022-11-01T16:38:29.148Z,19.40
2022-11-01T16:41:15.561Z,19.40
2022-11-01T16:43:43.128Z,19.40
2022-11-01T16:46:10.320Z,19.30
2022-11-01T16:48:59.207Z,19.30
2022-11-01T16:51:29.051Z,19.30
2022-11-01T16:54:00.567Z,19.30
2022-11-01T16:56:39.455Z,19.20
2022-11-01T16:59:24.291Z,19.20
2022-11-01T17:01:52.337Z,19.20
2022-11-01T17:04:19.769Z,19.20
2022-11-01T17:06:48.089Z,19.20
2022-11-01T17:09:18.237Z,19.20
2022-11-01T17:11:51.547Z,19.20
2022-11-01T17:14:20.685Z,19.10
2022-11-01T17:16:50.134Z,19.10
2022-11-01T17:19:31.248Z,19.10
2022-11-01T17:22:05.555Z,19.10
2022-11-01T17:24:34.125Z,19.00
2022-11-01T17:27:05.288Z,19.00
2022-11-01T17:29:33.446Z,19.00
2022-11-01T17:32:01.165Z,19.00
2022-11-01T17:34:29.048Z,18.90
2022-11-01T17:36:57.513Z,18.90
2022-11-01T17:39:28.214Z,18.90
2022-11-01T17:41:55.624Z,18.90
2022-11-01T17:44:23.259Z,18.90
2022-11-01T17:46:50.286Z,18.90
2022-11-01T17:49:21.446Z,18.90
2022-11-01T17:51:54.149Z,18.90
2022-11-01T17:54:22.143Z,18.80
2022-11-01T17:56:50.125Z,18.90
2022-11-01T17:59:17.135Z,18.80
2022-11-01T18:01:45.114Z,18.80
2022-11-01T18:04:12.294Z,18.80
2022-11-01T18:06:40.750Z,18.80
2022-11-01T18:09:19.894Z,18.80
2022-11-01T18:12:16.930Z,18.80
2022-11-01T18:15:04.544Z,18.80
2022-11-01T18:17:49.051Z,18.80
2022-11-01T18:20:28.071Z,18.80
2022-11-01T18:23:00.415Z,18.70
2022-11-01T18:25:37.143Z,18.70
2022-11-01T18:28:16.106Z,18.70
2022-11-01T18:31:12.198Z,18.70
2022-11-01T18:33:50.910Z,18.70
2022-11-01T18:36:24.575Z,18.70
2022-11-01T18:39:10.947Z,18.70
2022-11-01T18:41:37.960Z,18.60
2022-11-01T18:44:11.292Z,18.60
2022-11-01T18:47:04.849Z,18.60
2022-11-01T18:49:31.900Z,18.60
2022-11-01T18:51:58.968Z,18.60
2022-11-01T18:54:30.327Z,18.50
2022-11-01T18:56:59.856Z,18.50
2022-11-01T18:59:32.152Z,18.50
2022-11-01T19:02:21.031Z,18.50
2022-11-01T19:04:52.288Z,18.40
2022-11-01T19:07:22.773Z,18.40
2022-11-01T19:09:54.323Z,18.40
2022-11-01T19:12:33.226Z,18.30
2022-11-01T19:15:05.452Z,18.30
2022-11-01T19:17:40.064Z,18.30
2022-11-01T19:20:28.487Z,18.30
2022-11-01T19:22:59.393Z,18.20
2022-11-01T19:25:30.583Z,18.20
2022-11-01T19:28:02.104Z,18.20
2022-11-01T19:30:31.932Z,18.10
2022-11-01T19:33:30.488Z,18.10
2022-11-01T19:35:58.154Z,18.10
2022-11-01T19:38:25.168Z,18.10
2022-11-01T19:40:53.341Z,18.00
2022-11-01T19:43:21.818Z,18.00
2022-11-01T19:45:53.935Z,17.90
2022-11-01T19:48:31.953Z,17.80
2022-11-01T19:51:00.159Z,17.80
2022-11-01T19:53:37.874Z,17.70
2022-11-01T19:56:10.185Z,17.70
2022-11-01T19:58:49.079Z,17.60
2022-11-01T20:01:24.020Z,17.60
2022-11-01T20:03:58.431Z,17.50
2022-11-01T20:06:31.133Z,17.40
2022-11-01T20:09:04.480Z,17.40
2022-11-01T20:11:32.858Z,17.30
2022-11-01T20:13:59.819Z,17.30
2022-11-01T20:16:26.858Z,17.30
2022-11-01T20:18:54.102Z,17.20
2022-11-01T20:21:21.065Z,17.20
2022-11-01T20:23:48.123Z,17.20
2022-11-01T20:26:16.455Z,17.20
2022-11-01T20:28:43.513Z,17.30
2022-11-01T20:31:10.526Z,17.30
2022-11-01T20:33:37.528Z,17.30
2022-11-01T20:36:10.807Z,17.30
2022-11-01T20:38:38.854Z,17.40
2022-11-01T20:41:06.173Z,17.40
2022-11-01T20:43:33.215Z,17.50
2022-11-01T20:46:00.221Z,17.50
2022-11-01T20:48:27.349Z,17.60
2022-11-01T20:50:54.308Z,17.60
2022-11-01T20:53:23.732Z,17.60
2022-11-01T20:55:54.438Z,17.70
2022-11-01T20:58:21.416Z,17.60
2022-11-01T21:00:48.601Z,17.70
2022-11-01T21:03:18.048Z,17.70
2022-11-01T21:05:46.838Z,17.70
2022-11-01T21:08:24.032Z,17.70
2022-11-01T21:11:03.429Z,17.70
2022-11-01T21:13:37.185Z,17.70
2022-11-01T21:16:14.053Z,17.80
2022-11-01T21:18:44.523Z,17.70
2022-11-01T21:21:14.360Z,17.70
2022-11-01T21:23:43.844Z,17.70
2022-11-01T21:26:20.763Z,17.80
2022-11-01T21:29:16.337Z,17.70
2022-11-01T21:31:43.468Z,17.70
2022-11-01T21:34:10.357Z,17.80
2022-11-01T21:36:41.920Z,17.80
2022-11-01T21:39:15.736Z,17.80
2022-11-01T21:41:58.132Z,17.80
2022-11-01T21:44:35.196Z,17.80
2022-11-01T21:47:14.317Z,17.80
2022-11-01T21:49:41.502Z,17.80
2022-11-01T21:54:39.532Z,17.80
2022-11-01T21:57:08.663Z,17.80
2022-11-01T21:59:36.443Z,17.80
2022-11-01T22:02:05.399Z,17.80
2022-11-01T22:04:33.200Z,17.80
2022-11-01T22:07:01.935Z,17.80
2022-11-01T22:09:29.521Z,17.80
2022-11-01T22:11:56.871Z,17.80
2022-11-01T22:14:24.405Z,17.80
2022-11-01T22:16:51.842Z,17.80
2022-11-01T22:19:19.417Z,17.80
2022-11-01T22:21:46.897Z,17.80
2022-11-01T22:24:13.920Z,17.80
2022-11-01T22:26:40.867Z,17.80
2022-11-01T22:29:07.845Z,17.80
2022-11-01T22:31:34.800Z,17.80
2022-11-01T22:34:02.326Z,17.80
2022-11-01T22:36:31.829Z,17.80
2022-11-01T22:39:00.043Z,17.80
2022-11-01T22:41:33.073Z,17.80
2022-11-01T22:44:09.985Z,17.70
2022-11-01T22:46:56.877Z,17.80
2022-11-01T22:49:50.070Z,17.80
2022-11-01T22:52:26.869Z,17.70
2022-11-01T22:55:13.180Z,17.80
2022-11-01T22:57:50.675Z,17.70
2022-11-01T23:00:36.144Z,17.70
2022-11-01T23:03:22.225Z,17.70
2022-11-01T23:05:54.612Z,17.70
2022-11-01T23:08:29.461Z,17.70
2022-11-01T23:10:57.288Z,17.70
2022-11-01T23:13:44.204Z,17.70
2022-11-01T23:16:28.535Z,17.70
2022-11-01T23:18:59.438Z,17.70
2022-11-01T23:21:27.623Z,17.60
2022-11-01T23:23:55.202Z,17.70
2022-11-01T23:26:23.947Z,17.70
2022-11-01T23:28:54.614Z,17.60
2022-11-01T23:31:22.591Z,17.60
2022-11-01T23:33:51.030Z,17.60
2022-11-01T23:36:37.500Z,17.60
2022-11-01T23:39:11.897Z,17.60
2022-11-01T23:41:44.511Z,17.60
2022-11-01T23:44:35.474Z,17.60
2022-11-01T23:47:25.032Z,17.60
2022-11-01T23:49:59.213Z,17.60
2022-11-01T23:52:59.996Z,17.70
2022-11-01T23:55:32.855Z,17.60
2022-11-01T23:58:05.922Z,17.60
